Time;durP1;ratioP1;P1;durP2;ratioP2;P2;SDS_P1;SDS_P2;PMS_P1;PMS_P2;Temp;Humidity;BMP_temperature;BMP_pressure;BME280_temperature;BME280_humidity;BME280_pressure;Samples;Min_cycle;Max_cycle;Signal;HPM_P1;HPM_P2
2023/10/08 00:03:48;;;;;;;2.53;2.53;;;;;;;;;;5993356;29;20170;-94
2023/10/08 00:06:55;;;;;;;2.03;2.03;;;;;;;;;;5998109;29;20050;-96
2023/10/08 00:09:59;;;;;;;2.47;2.47;;;;;;;;;;5994169;29;20210;-96
2023/10/08 00:13:01;;;;;;;2.53;2.53;;;;;;;;;;5988788;29;20089;-92
2023/10/08 00:16:08;;;;;;;2.30;2.30;;;;;;;;;;5996795;29;20603;-95
2023/10/08 00:19:14;;;;;;;2.17;2.17;;;;;;;;;;5980559;29;20112;-95
2023/10/08 00:22:18;;;;;;;2.40;2.40;;;;;;;;;;6002310;29;20425;-96
2023/10/08 00:25:20;;;;;;;2.58;2.58;;;;;;;;;;5989532;29;20425;-96
2023/10/08 00:28:28;;;;;;;2.50;2.50;;;;;;;;;;5981015;29;20057;-96
2023/10/08 00:31:41;;;;;;;2.58;2.58;;;;;;;;;;5992092;29;20409;-95
2023/10/08 00:34:47;;;;;;;2.22;2.22;;;;;;;;;;6041075;29;20060;-96
2023/10/08 00:37:53;;;;;;;2.00;2.00;;;;;;;;;;6032847;29;20053;-96
2023/10/08 00:40:57;;;;;;;6.00;2.75;;;;;;;;;;6042843;29;20150;-96
2023/10/08 00:44:05;;;;;;;3.10;3.00;;;;;;;;;;6047881;29;20366;-96
2023/10/08 00:58:09;;;;;;;2.60;2.60;;;;;;;;;;6188856;23;20057;-95
2023/10/08 01:01:16;;;;;;;2.90;2.80;;;;;;;;;;6033658;29;20051;-96
2023/10/08 01:04:25;;;;;;;2.65;2.65;;;;;;;;;;6020630;29;20049;-95
2023/10/08 01:07:35;;;;;;;2.80;2.70;;;;;;;;;;6009241;29;20053;-95
2023/10/08 01:10:47;;;;;;;2.42;2.42;;;;;;;;;;6009553;29;20508;-91
2023/10/08 01:13:49;;;;;;;2.58;2.58;;;;;;;;;;6025312;29;20078;-90
2023/10/08 01:16:52;;;;;;;2.40;2.40;;;;;;;;;;6025597;29;20137;-95
2023/10/08 01:20:48;;;;;;;2.42;2.42;;;;;;;;;;6034833;29;20112;-96
2023/10/08 01:23:33;;;;;;;2.15;2.15;;;;;;;;;;6035687;29;20444;-94
2023/10/08 01:26:39;;;;;;;2.50;2.50;;;;;;;;;;6016905;29;20480;-95
2023/10/08 01:29:44;;;;;;;2.55;2.55;;;;;;;;;;6016644;29;20063;-96
2023/10/08 01:32:46;;;;;;;2.40;2.40;;;;;;;;;;6014684;29;20439;-95
2023/10/08 01:35:49;;;;;;;2.30;2.30;;;;;;;;;;6014909;29;20091;-95
2023/10/08 01:38:53;;;;;;;2.55;2.47;;;;;;;;;;6019779;29;20073;-95
2023/10/08 01:41:55;;;;;;;2.55;2.55;;;;;;;;;;6021649;29;20053;-95
2023/10/08 01:44:58;;;;;;;2.45;2.45;;;;;;;;;;6014468;29;20045;-96
2023/10/08 01:48:00;;;;;;;2.92;2.85;;;;;;;;;;6008158;29;20164;-96
2023/10/08 01:51:11;;;;;;;3.00;2.90;;;;;;;;;;6019358;29;20045;-96
2023/10/08 01:54:17;;;;;;;3.15;3.05;;;;;;;;;;6021837;29;20037;-96
2023/10/08 01:57:20;;;;;;;3.00;2.90;;;;;;;;;;6022140;29;20045;-95
2023/10/08 02:00:23;;;;;;;3.20;3.10;;;;;;;;;;6005570;29;20069;-96
2023/10/08 02:03:25;;;;;;;2.60;2.60;;;;;;;;;;6010629;29;20050;-95
2023/10/08 02:06:30;;;;;;;2.80;2.78;;;;;;;;;;6014858;29;20042;-95
2023/10/08 02:09:33;;;;;;;3.03;2.92;;;;;;;;;;6018393;29;20632;-96
2023/10/08 02:12:35;;;;;;;2.70;2.70;;;;;;;;;;6020856;29;20129;-95
2023/10/08 02:15:40;;;;;;;4.70;2.92;;;;;;;;;;6024793;29;20141;-96
2023/10/08 02:18:44;;;;;;;2.83;2.80;;;;;;;;;;6025436;29;20049;-96
2023/10/08 02:21:46;;;;;;;2.90;2.80;;;;;;;;;;6018631;29;20061;-94
2023/10/08 02:24:50;;;;;;;2.72;2.53;;;;;;;;;;6018726;29;20061;-95
2023/10/08 02:27:53;;;;;;;2.20;2.20;;;;;;;;;;6004283;29;20433;-95
2023/10/08 02:30:55;;;;;;;2.45;2.45;;;;;;;;;;6018589;29;20476;-94
2023/10/08 02:33:58;;;;;;;2.30;2.30;;;;;;;;;;6029734;29;20053;-95
2023/10/08 02:37:03;;;;;;;2.92;2.83;;;;;;;;;;6022341;29;20050;-95
2023/10/08 02:40:13;;;;;;;2.83;2.72;;;;;;;;;;6021694;29;20144;-94
2023/10/08 02:43:17;;;;;;;2.42;2.42;;;;;;;;;;6024946;29;20042;-95
2023/10/08 02:46:19;;;;;;;2.97;2.88;;;;;;;;;;6024139;29;20030;-95
2023/10/08 02:49:30;;;;;;;3.33;3.22;;;;;;;;;;6038533;29;20089;-96
2023/10/08 02:52:32;;;;;;;2.88;2.78;;;;;;;;;;6017170;29;20045;-96
2023/10/08 02:55:35;;;;;;;2.30;2.30;;;;;;;;;;6018358;29;20065;-95
2023/10/08 02:58:38;;;;;;;2.80;2.70;;;;;;;;;;6021779;29;20477;-95
2023/10/08 03:01:41;;;;;;;2.83;2.72;;;;;;;;;;6008431;29;20049;-96
2023/10/08 03:04:52;;;;;;;2.55;2.55;;;;;;;;;;6009004;29;20358;-96
2023/10/08 03:07:55;;;;;;;3.17;3.08;;;;;;;;;;6025170;29;20175;-95
2023/10/08 03:11:02;;;;;;;2.65;2.65;;;;;;;;;;6022217;29;20146;-96
2023/10/08 03:14:05;;;;;;;2.58;2.58;;;;;;;;;;6017742;29;20052;-95
2023/10/08 03:17:07;;;;;;;3.00;2.90;;;;;;;;;;6016138;29;20516;-96
2023/10/08 03:23:35;;;;;;;2.50;2.50;;;;;;;;;;6028949;29;20041;-96
2023/10/08 03:26:39;;;;;;;2.95;2.85;;;;;;;;;;6027158;29;20057;-95
2023/10/08 03:29:42;;;;;;;2.55;2.55;;;;;;;;;;6025098;29;20158;-96
2023/10/08 03:33:01;;;;;;;2.63;2.60;;;;;;;;;;6015287;29;20583;-96
2023/10/08 03:39:50;;;;;;;3.00;2.90;;;;;;;;;;6037474;29;20431;-96
2023/10/08 03:42:56;;;;;;;2.10;2.10;;;;;;;;;;6041316;29;20049;-96
2023/10/08 03:46:15;;;;;;;1.98;1.98;;;;;;;;;;6060125;29;20033;-96
2023/10/08 03:49:27;;;;;;;2.47;2.38;;;;;;;;;;6047522;29;20054;-96
2023/10/08 03:52:51;;;;;;;2.13;2.13;;;;;;;;;;6039617;29;20043;-96
2023/10/08 03:56:00;;;;;;;2.10;2.10;;;;;;;;;;6050804;29;20045;-96
2023/10/08 03:59:40;;;;;;;2.10;2.10;;;;;;;;;;6053532;29;20045;-96
2023/10/08 04:02:54;;;;;;;2.67;2.58;;;;;;;;;;6029873;29;20069;-96
2023/10/08 04:06:16;;;;;;;2.63;2.63;;;;;;;;;;6035690;29;20053;-96
2023/10/08 04:12:26;;;;;;;2.40;2.40;;;;;;;;;;6028550;29;20046;-96
2023/10/08 04:15:30;;;;;;;3.25;3.15;;;;;;;;;;6013231;29;20053;-96
2023/10/08 04:18:40;;;;;;;2.60;2.50;;;;;;;;;;6038280;29;20057;-96
2023/10/08 04:21:42;;;;;;;2.38;2.38;;;;;;;;;;6028776;29;20589;-96
2023/10/08 04:24:47;;;;;;;2.38;2.38;;;;;;;;;;6018211;29;20054;-96
2023/10/08 04:27:58;;;;;;;2.38;2.38;;;;;;;;;;6011351;29;20081;-96
2023/10/08 04:31:14;;;;;;;3.03;2.92;;;;;;;;;;6023932;29;20061;-96
2023/10/08 04:34:23;;;;;;;2.63;2.55;;;;;;;;;;6018180;29;20558;-96
2023/10/08 04:37:32;;;;;;;2.90;2.80;;;;;;;;;;6024211;29;20144;-96
2023/10/08 04:40:48;;;;;;;2.97;2.42;;;;;;;;;;6024457;29;20061;-96
2023/10/08 04:43:55;;;;;;;2.15;2.15;;;;;;;;;;6022435;29;20045;-96
2023/10/08 04:47:31;;;;;;;3.38;3.10;;;;;;;;;;6019262;29;20056;-97
2023/10/08 04:50:44;;;;;;;2.63;2.53;;;;;;;;;;6034066;29;20515;-96
2023/10/08 04:53:53;;;;;;;2.45;2.35;;;;;;;;;;6030165;29;20489;-96
2023/10/08 04:57:01;;;;;;;2.42;2.42;;;;;;;;;;6025133;29;20529;-96
2023/10/08 05:00:14;;;;;;;2.30;2.30;;;;;;;;;;6031971;29;20147;-96
2023/10/08 05:03:20;;;;;;;2.30;2.30;;;;;;;;;;6006307;29;20050;-96
2023/10/08 05:06:50;;;;;;;2.95;2.85;;;;;;;;;;6039829;29;20561;-96
2023/10/08 05:13:17;;;;;;;2.38;2.38;;;;;;;;;;6041379;29;20045;-96
2023/10/08 05:16:35;;;;;;;2.00;2.00;;;;;;;;;;6040834;29;20051;-96
2023/10/08 05:22:55;;;;;;;2.45;2.45;;;;;;;;;;6020427;29;20123;-96
2023/10/08 05:26:20;;;;;;;2.83;2.78;;;;;;;;;;6025815;29;20401;-96
2023/10/08 05:29:51;;;;;;;2.90;2.80;;;;;;;;;;6017790;29;20122;-96
2023/10/08 05:36:27;;;;;;;2.40;2.40;;;;;;;;;;6018956;29;20816;-96
2023/10/08 05:39:40;;;;;;;3.17;3.08;;;;;;;;;;6022182;29;20068;-96
2023/10/08 05:42:50;;;;;;;2.35;2.35;;;;;;;;;;6022050;29;20130;-96
2023/10/08 05:46:35;;;;;;;3.08;2.88;;;;;;;;;;6027231;29;20489;-95
2023/10/08 05:56:16;;;;;;;2.40;2.40;;;;;;;;;;6016089;29;20407;-95
2023/10/08 05:59:27;;;;;;;2.70;2.70;;;;;;;;;;6005292;29;20061;-95
2023/10/08 06:05:43;;;;;;;2.03;2.03;;;;;;;;;;6020323;29;20215;-95
2023/10/08 06:09:20;;;;;;;2.28;2.28;;;;;;;;;;6035595;29;20038;-95
2023/10/08 06:12:30;;;;;;;3.58;3.47;;;;;;;;;;6014395;29;20405;-94
2023/10/08 06:16:05;;;;;;;2.72;2.70;;;;;;;;;;6020287;29;20046;-94
2023/10/08 06:19:09;;;;;;;2.72;2.63;;;;;;;;;;6024669;29;20049;-96
2023/10/08 06:22:12;;;;;;;9.10;2.42;;;;;;;;;;6053783;29;20045;-96
2023/10/08 06:25:23;;;;;;;2.35;2.28;;;;;;;;;;6049126;29;20057;-96
2023/10/08 06:28:26;;;;;;;2.60;2.60;;;;;;;;;;6017145;29;20459;-96
2023/10/08 06:31:31;;;;;;;2.80;2.75;;;;;;;;;;6027677;29;20489;-96
2023/10/08 06:34:33;;;;;;;2.75;2.65;;;;;;;;;;6024334;29;20046;-96
2023/10/08 06:37:36;;;;;;;2.88;2.78;;;;;;;;;;6027371;29;20068;-96
2023/10/08 06:47:09;;;;;;;2.92;2.83;;;;;;;;;;6020646;29;20042;-96
2023/10/08 06:50:14;;;;;;;3.20;3.10;;;;;;;;;;6022299;29;20049;-96
2023/10/08 06:53:21;;;;;;;2.10;2.10;;;;;;;;;;6011632;29;20425;-96
2023/10/08 06:56:24;;;;;;;2.90;2.80;;;;;;;;;;6036115;29;20044;-96
2023/10/08 06:59:31;;;;;;;6.60;3.00;;;;;;;;;;6027393;29;20529;-96
2023/10/08 07:02:34;;;;;;;2.92;2.83;;;;;;;;;;6020465;29;20058;-96
2023/10/08 07:05:40;;;;;;;2.67;2.60;;;;;;;;;;6014835;29;20395;-96
2023/10/08 07:08:46;;;;;;;2.60;2.60;;;;;;;;;;6018187;29;20406;-96
2023/10/08 07:11:49;;;;;;;2.88;2.78;;;;;;;;;;6015778;29;20136;-96
2023/10/08 07:14:59;;;;;;;3.08;2.97;;;;;;;;;;6015805;29;20049;-96
2023/10/08 07:18:09;;;;;;;2.78;2.67;;;;;;;;;;6024899;29;20057;-96
2023/10/08 07:21:11;;;;;;;2.40;2.40;;;;;;;;;;6021127;29;20045;-96
2023/10/08 07:24:17;;;;;;;2.92;2.83;;;;;;;;;;6022272;29;20547;-96
2023/10/08 07:27:21;;;;;;;2.80;2.70;;;;;;;;;;6027615;29;20038;-96
2023/10/08 07:30:26;;;;;;;3.17;3.08;;;;;;;;;;6021811;29;20041;-96
2023/10/08 07:33:36;;;;;;;2.30;2.30;;;;;;;;;;6020065;29;20571;-96
2023/10/08 07:36:39;;;;;;;2.78;2.67;;;;;;;;;;6017772;29;20470;-95
2023/10/08 07:39:46;;;;;;;2.83;2.75;;;;;;;;;;6018925;29;20060;-96
2023/10/08 07:42:51;;;;;;;2.75;2.72;;;;;;;;;;6023072;29;20073;-96
2023/10/08 07:45:54;;;;;;;2.95;2.85;;;;;;;;;;5986947;29;20046;-96
2023/10/08 07:48:58;;;;;;;2.55;2.55;;;;;;;;;;6016360;29;20394;-96
2023/10/08 07:52:00;;;;;;;3.42;3.22;;;;;;;;;;6031980;29;20041;-96
2023/10/08 07:55:04;;;;;;;2.92;2.83;;;;;;;;;;6018353;29;20045;-96
2023/10/08 07:58:10;;;;;;;3.50;3.38;;;;;;;;;;6016842;29;20058;-95
2023/10/08 08:01:13;;;;;;;2.15;2.15;;;;;;;;;;6021759;29;20053;-95
2023/10/08 08:04:22;;;;;;;2.50;2.50;;;;;;;;;;6006387;29;20200;-94
2023/10/08 08:07:25;;;;;;;2.45;2.45;;;;;;;;;;6016630;29;20500;-94
2023/10/08 08:10:29;;;;;;;6.15;2.90;;;;;;;;;;6018215;29;20056;-94
2023/10/08 08:13:33;;;;;;;3.33;3.22;;;;;;;;;;6019612;29;20054;-94
2023/10/08 08:16:37;;;;;;;2.55;2.55;;;;;;;;;;5993554;29;20505;-93
2023/10/08 08:19:52;;;;;;;2.75;2.67;;;;;;;;;;6020015;29;20133;-93
2023/10/08 08:22:56;;;;;;;2.67;2.58;;;;;;;;;;6014351;29;20087;-93
2023/10/08 08:26:26;;;;;;;3.20;3.10;;;;;;;;;;6020263;29;20045;-92
2023/10/08 08:29:29;;;;;;;2.63;2.53;;;;;;;;;;6021922;29;20413;-92
2023/10/08 08:32:31;;;;;;;2.55;2.50;;;;;;;;;;6016356;29;20041;-93
2023/10/08 08:35:37;;;;;;;2.80;2.70;;;;;;;;;;6016849;29;20080;-93
2023/10/08 08:38:42;;;;;;;2.75;2.72;;;;;;;;;;6017237;29;20433;-92
2023/10/08 08:41:44;;;;;;;2.80;2.75;;;;;;;;;;6040878;29;20456;-92
2023/10/08 08:44:46;;;;;;;2.70;2.70;;;;;;;;;;6015024;29;20140;-92
2023/10/08 08:47:49;;;;;;;2.72;2.63;;;;;;;;;;6020914;29;20053;-92
2023/10/08 08:50:52;;;;;;;2.58;2.55;;;;;;;;;;6022027;29;20511;-92
2023/10/08 08:53:55;;;;;;;2.47;2.42;;;;;;;;;;6017329;29;20050;-91
2023/10/08 08:57:13;;;;;;;3.40;3.20;;;;;;;;;;6021819;29;20034;-91
2023/10/08 09:00:17;;;;;;;2.80;2.80;;;;;;;;;;6019741;29;20053;-91
2023/10/08 09:03:19;;;;;;;10.75;3.30;;;;;;;;;;6005947;29;20053;-91
2023/10/08 09:06:22;;;;;;;3.10;2.90;;;;;;;;;;6014779;29;20109;-91
2023/10/08 09:09:31;;;;;;;3.42;3.33;;;;;;;;;;6018456;29;20049;-90
2023/10/08 09:12:33;;;;;;;2.42;2.42;;;;;;;;;;6015546;29;20104;-90
2023/10/08 09:15:36;;;;;;;3.17;3.08;;;;;;;;;;6017018;29;20182;-91
2023/10/08 09:18:39;;;;;;;2.53;2.53;;;;;;;;;;6011270;29;20358;-90
2023/10/08 09:21:42;;;;;;;2.85;2.75;;;;;;;;;;6018657;29;20416;-90
2023/10/08 09:24:44;;;;;;;2.58;2.53;;;;;;;;;;6014572;29;20041;-90
2023/10/08 09:27:55;;;;;;;2.20;2.20;;;;;;;;;;6012744;29;20049;-90
2023/10/08 09:31:01;;;;;;;3.30;3.10;;;;;;;;;;6016152;29;20450;-90
2023/10/08 09:34:03;;;;;;;2.72;2.63;;;;;;;;;;6021261;29;20053;-90
2023/10/08 09:37:07;;;;;;;2.50;2.50;;;;;;;;;;6018993;29;20639;-89
2023/10/08 09:40:11;;;;;;;2.75;2.67;;;;;;;;;;6015667;29;20566;-89
2023/10/08 09:43:15;;;;;;;2.80;2.65;;;;;;;;;;6021362;29;20117;-89
2023/10/08 09:46:17;;;;;;;2.72;2.60;;;;;;;;;;6017866;29;20089;-89
2023/10/08 09:49:22;;;;;;;2.97;2.88;;;;;;;;;;6015306;29;20046;-89
2023/10/08 09:52:29;;;;;;;2.20;2.20;;;;;;;;;;6017599;29;20397;-89
2023/10/08 09:55:31;;;;;;;3.40;3.15;;;;;;;;;;6020452;29;20114;-89
2023/10/08 09:58:33;;;;;;;1.90;1.90;;;;;;;;;;6015843;29;20048;-89
2023/10/08 10:01:37;;;;;;;2.63;2.53;;;;;;;;;;6012265;29;20046;-89
2023/10/08 10:04:43;;;;;;;2.50;2.50;;;;;;;;;;6010382;29;20049;-89
2023/10/08 10:07:47;;;;;;;3.05;2.85;;;;;;;;;;6018362;29;20437;-89
2023/10/08 10:10:57;;;;;;;2.20;2.20;;;;;;;;;;6011259;29;20523;-89
2023/10/08 10:14:00;;;;;;;2.97;2.75;;;;;;;;;;6015150;29;20049;-89
2023/10/08 10:17:22;;;;;;;2.97;2.88;;;;;;;;;;6021408;29;20073;-89
2023/10/08 10:21:00;;;;;;;2.83;2.72;;;;;;;;;;6017279;29;20693;-89
2023/10/08 10:24:05;;;;;;;2.65;2.65;;;;;;;;;;6010451;29;20060;-89
2023/10/08 10:27:11;;;;;;;2.40;2.40;;;;;;;;;;5997738;29;20096;-89
2023/10/08 10:30:18;;;;;;;2.65;2.65;;;;;;;;;;6009257;29;20054;-89
2023/10/08 10:33:32;;;;;;;2.47;2.47;;;;;;;;;;6011878;29;20120;-89
2023/10/08 10:36:35;;;;;;;2.40;2.40;;;;;;;;;;6014512;29;20057;-89
2023/10/08 10:39:46;;;;;;;2.28;2.20;;;;;;;;;;6008959;29;20058;-89
2023/10/08 10:42:53;;;;;;;3.92;3.83;;;;;;;;;;6006832;29;20434;-89
2023/10/08 10:46:19;;;;;;;3.25;3.03;;;;;;;;;;6015233;29;20701;-89
2023/10/08 10:49:30;;;;;;;2.92;2.83;;;;;;;;;;6011540;29;20034;-89
2023/10/08 10:52:32;;;;;;;7.55;3.53;;;;;;;;;;6015506;29;20041;-89
2023/10/08 10:55:34;;;;;;;2.38;2.28;;;;;;;;;;6017290;29;20141;-89
2023/10/08 10:58:42;;;;;;;1.77;1.77;;;;;;;;;;6018399;29;20045;-89
2023/10/08 11:02:05;;;;;;;2.53;2.33;;;;;;;;;;6013458;29;20053;-90
2023/10/08 11:05:08;;;;;;;2.78;2.67;;;;;;;;;;6015511;29;20058;-90
2023/10/08 11:08:14;;;;;;;2.75;2.65;;;;;;;;;;6014997;29;20041;-90
2023/10/08 11:11:17;;;;;;;1.98;1.98;;;;;;;;;;6012157;29;20588;-90
2023/10/08 11:14:19;;;;;;;2.47;2.38;;;;;;;;;;6017564;29;20849;-89
2023/10/08 11:17:25;;;;;;;2.42;2.42;;;;;;;;;;6017754;29;20044;-90
2023/10/08 11:20:28;;;;;;;2.13;2.13;;;;;;;;;;6027554;29;20089;-90
2023/10/08 11:23:37;;;;;;;2.55;2.45;;;;;;;;;;6012305;29;20046;-90
2023/10/08 11:26:39;;;;;;;2.75;2.45;;;;;;;;;;6014418;29;20421;-90
2023/10/08 11:29:46;;;;;;;1.90;1.90;;;;;;;;;;6010416;29;20049;-89
2023/10/08 11:32:48;;;;;;;2.70;2.53;;;;;;;;;;6020811;29;20053;-90
2023/10/08 11:35:58;;;;;;;2.10;2.03;;;;;;;;;;6022879;29;20554;-89
2023/10/08 11:39:11;;;;;;;1.95;1.95;;;;;;;;;;6017697;29;20484;-90
2023/10/08 11:42:40;;;;;;;2.10;2.05;;;;;;;;;;6025596;29;20147;-90
2023/10/08 11:45:48;;;;;;;2.15;2.15;;;;;;;;;;5995760;29;20140;-91
2023/10/08 11:48:50;;;;;;;1.70;1.70;;;;;;;;;;6024997;29;20500;-90
2023/10/08 11:51:55;;;;;;;1.70;1.70;;;;;;;;;;6021637;29;20053;-90
2023/10/08 11:55:10;;;;;;;1.95;1.95;;;;;;;;;;6013763;29;20198;-90
2023/10/08 11:58:17;;;;;;;2.42;2.33;;;;;;;;;;6015291;29;20183;-90
2023/10/08 12:01:20;;;;;;;2.03;2.03;;;;;;;;;;6021396;29;20041;-91
2023/10/08 12:04:22;;;;;;;2.10;2.00;;;;;;;;;;6023644;29;20353;-90
2023/10/08 12:07:27;;;;;;;2.08;2.05;;;;;;;;;;6018611;29;20134;-90
2023/10/08 12:10:34;;;;;;;2.05;2.05;;;;;;;;;;6016617;29;20129;-90
2023/10/08 12:13:37;;;;;;;1.70;1.70;;;;;;;;;;6008336;29;20045;-90
2023/10/08 12:16:40;;;;;;;2.20;2.20;;;;;;;;;;6025074;29;20287;-90
2023/10/08 12:19:42;;;;;;;2.42;2.33;;;;;;;;;;6004973;29;20049;-91
2023/10/08 12:22:45;;;;;;;2.05;1.98;;;;;;;;;;6024422;29;20053;-90
2023/10/08 12:25:51;;;;;;;2.13;2.03;;;;;;;;;;6003213;29;20050;-90
2023/10/08 12:28:55;;;;;;;3.25;2.78;;;;;;;;;;6018639;29;20034;-90
2023/10/08 12:31:59;;;;;;;2.40;2.30;;;;;;;;;;6020463;29;20132;-90
2023/10/08 12:35:08;;;;;;;2.03;2.03;;;;;;;;;;6022423;29;20069;-94
2023/10/08 12:38:20;;;;;;;2.10;2.10;;;;;;;;;;6019453;29;20041;-94
2023/10/08 12:41:26;;;;;;;1.75;1.75;;;;;;;;;;6024797;29;20054;-95
2023/10/08 12:44:29;;;;;;;1.65;1.65;;;;;;;;;;6021941;29;20057;-94
2023/10/08 12:47:39;;;;;;;1.67;1.67;;;;;;;;;;6023774;29;20441;-94
2023/10/08 12:50:43;;;;;;;1.95;1.95;;;;;;;;;;6018456;29;20054;-94
2023/10/08 12:54:21;;;;;;;2.00;2.00;;;;;;;;;;6024024;29;20058;-95
2023/10/08 12:57:31;;;;;;;1.92;1.92;;;;;;;;;;6021894;29;20050;-94
2023/10/08 13:00:37;;;;;;;2.20;2.13;;;;;;;;;;6014216;29;20057;-94
2023/10/08 13:03:47;;;;;;;2.40;2.30;;;;;;;;;;6019882;29;20064;-96
2023/10/08 13:06:51;;;;;;;2.08;1.98;;;;;;;;;;6006402;29;20053;-94
2023/10/08 13:10:01;;;;;;;2.63;2.53;;;;;;;;;;6020058;29;20057;-94
2023/10/08 13:13:10;;;;;;;1.92;1.92;;;;;;;;;;6005738;29;20913;-95
2023/10/08 13:16:15;;;;;;;2.25;2.22;;;;;;;;;;6001385;29;20050;-94
2023/10/08 13:19:33;;;;;;;3.25;2.55;;;;;;;;;;6018516;29;20057;-95
2023/10/08 13:22:47;;;;;;;1.85;1.85;;;;;;;;;;6031701;29;20099;-95
2023/10/08 13:26:17;;;;;;;2.00;2.00;;;;;;;;;;6020175;29;20058;-94
2023/10/08 13:29:30;;;;;;;;;;;;;;;;;;;;;
2023/10/08 13:33:08;;;;;;;2.67;2.58;;;;;;;;;;6020070;29;20189;-94
2023/10/08 13:36:13;;;;;;;2.03;2.03;;;;;;;;;;6020513;29;20119;-94
2023/10/08 13:39:21;;;;;;;2.00;2.00;;;;;;;;;;6004758;29;20404;-94
2023/10/08 13:42:29;;;;;;;2.28;2.08;;;;;;;;;;6018629;29;20152;-94
2023/10/08 13:45:37;;;;;;;1.88;1.88;;;;;;;;;;6015141;29;20057;-95
2023/10/08 13:48:41;;;;;;;2.00;1.90;;;;;;;;;;6004750;29;20061;-94
2023/10/08 13:51:46;;;;;;;1.88;1.88;;;;;;;;;;6022551;29;20057;-95
2023/10/08 13:54:52;;;;;;;1.90;1.90;;;;;;;;;;6001607;29;20390;-95
2023/10/08 13:58:04;;;;;;;2.33;2.22;;;;;;;;;;6004254;29;20053;-94
2023/10/08 14:01:20;;;;;;;2.17;2.17;;;;;;;;;;6019545;29;20049;-95
2023/10/08 14:04:30;;;;;;;2.00;2.00;;;;;;;;;;5989618;29;20595;-95
2023/10/08 14:07:39;;;;;;;2.33;2.33;;;;;;;;;;6024456;29;20350;-94
2023/10/08 14:10:45;;;;;;;2.47;2.38;;;;;;;;;;6022355;29;20092;-94
2023/10/08 14:14:07;;;;;;;2.00;2.00;;;;;;;;;;6005752;29;20062;-94
2023/10/08 14:17:39;;;;;;;2.08;1.98;;;;;;;;;;6023221;29;20241;-94
2023/10/08 14:20:53;;;;;;;2.38;2.28;;;;;;;;;;6013464;29;20498;-93
2023/10/08 14:24:05;;;;;;;2.35;2.25;;;;;;;;;;6021118;29;20034;-94
2023/10/08 14:27:15;;;;;;;2.05;1.95;;;;;;;;;;6026873;29;20669;-94
2023/10/08 14:30:27;;;;;;;2.25;2.25;;;;;;;;;;6011723;29;20564;-94
2023/10/08 14:34:05;;;;;;;2.33;2.17;;;;;;;;;;6021593;29;20535;-93
2023/10/08 14:44:00;;;;;;;1.70;1.70;;;;;;;;;;6018388;29;20165;-90
2023/10/08 14:47:04;;;;;;;2.13;2.08;;;;;;;;;;6025972;29;20420;-90
2023/10/08 14:50:15;;;;;;;1.88;1.88;;;;;;;;;;6022128;29;20052;-90
2023/10/08 14:53:18;;;;;;;2.03;2.03;;;;;;;;;;6023973;29;20053;-90
2023/10/08 14:56:20;;;;;;;1.85;1.85;;;;;;;;;;6026813;29;20583;-90
2023/10/08 14:59:23;;;;;;;2.60;2.50;;;;;;;;;;6016694;29;20393;-90
2023/10/08 15:02:29;;;;;;;7.53;2.08;;;;;;;;;;6025233;29;20145;-90
2023/10/08 15:05:32;;;;;;;2.45;2.35;;;;;;;;;;6027344;29;20527;-89
2023/10/08 15:08:35;;;;;;;2.13;2.10;;;;;;;;;;6020498;29;20097;-90
2023/10/08 15:11:38;;;;;;;2.03;1.92;;;;;;;;;;6019575;29;20041;-89
2023/10/08 15:14:42;;;;;;;5.97;1.80;;;;;;;;;;6024027;29;20085;-89
2023/10/08 15:17:44;;;;;;;1.80;1.80;;;;;;;;;;6023508;29;20104;-90
2023/10/08 15:20:47;;;;;;;2.00;2.00;;;;;;;;;;6020001;29;20049;-89
2023/10/08 15:23:48;;;;;;;2.00;1.90;;;;;;;;;;6022714;29;20053;-89
2023/10/08 15:26:52;;;;;;;1.85;1.85;;;;;;;;;;6021229;29;20052;-90
2023/10/08 15:29:54;;;;;;;1.90;1.90;;;;;;;;;;6020949;29;20053;-90
2023/10/08 15:32:57;;;;;;;2.47;2.28;;;;;;;;;;6003202;29;20049;-89
2023/10/08 15:36:00;;;;;;;1.60;1.60;;;;;;;;;;6023791;29;20567;-89
2023/10/08 15:39:04;;;;;;;1.70;1.70;;;;;;;;;;6019621;29;20061;-89
2023/10/08 15:42:06;;;;;;;1.60;1.60;;;;;;;;;;6024965;29;20049;-89
2023/10/08 15:45:12;;;;;;;1.77;1.77;;;;;;;;;;6023974;29;20167;-89
2023/10/08 15:48:14;;;;;;;2.25;2.15;;;;;;;;;;6024371;29;20045;-89
2023/10/08 15:51:17;;;;;;;1.80;1.80;;;;;;;;;;6011822;29;20053;-89
2023/10/08 15:54:20;;;;;;;2.50;2.40;;;;;;;;;;6023185;29;20240;-89
2023/10/08 15:57:22;;;;;;;2.30;2.30;;;;;;;;;;6022777;29;20105;-89
2023/10/08 16:00:24;;;;;;;3.38;3.10;;;;;;;;;;6020438;29;20049;-89
2023/10/08 16:03:26;;;;;;;2.47;2.38;;;;;;;;;;6012263;29;20053;-89
2023/10/08 16:06:28;;;;;;;2.25;2.25;;;;;;;;;;6017248;29;20045;-89
2023/10/08 16:09:30;;;;;;;1.75;1.75;;;;;;;;;;6023332;29;20124;-89
2023/10/08 16:12:31;;;;;;;2.35;2.35;;;;;;;;;;6020678;29;20049;-89
2023/10/08 16:15:33;;;;;;;2.15;1.92;;;;;;;;;;6020957;29;20247;-89
2023/10/08 16:18:37;;;;;;;2.45;2.35;;;;;;;;;;6017265;29;20045;-89
2023/10/08 16:21:39;;;;;;;2.42;2.33;;;;;;;;;;6015055;29;20179;-89
2023/10/08 16:24:41;;;;;;;2.95;2.85;;;;;;;;;;6016454;29;20187;-88
2023/10/08 16:27:47;;;;;;;2.47;2.38;;;;;;;;;;6019973;29;20134;-88
2023/10/08 16:30:53;;;;;;;6.75;2.92;;;;;;;;;;6013462;29;20057;-89
2023/10/08 16:33:55;;;;;;;2.42;2.33;;;;;;;;;;6020690;29;20412;-88
2023/10/08 16:36:57;;;;;;;1.90;1.90;;;;;;;;;;6015048;29;20082;-89
2023/10/08 16:39:59;;;;;;;1.85;1.85;;;;;;;;;;6020462;29;20166;-88
2023/10/08 16:43:02;;;;;;;2.00;2.00;;;;;;;;;;6018944;29;20116;-88
2023/10/08 16:46:07;;;;;;;3.33;3.00;;;;;;;;;;6018186;29;20641;-88
2023/10/08 16:49:09;;;;;;;2.17;2.17;;;;;;;;;;6022963;29;20049;-88
2023/10/08 16:52:12;;;;;;;1.73;1.73;;;;;;;;;;6018216;29;20492;-89
2023/10/08 16:55:14;;;;;;;2.22;2.22;;;;;;;;;;6020599;29;20046;-89
2023/10/08 16:58:16;;;;;;;1.92;1.92;;;;;;;;;;6023039;29;20056;-88
2023/10/08 17:01:17;;;;;;;2.40;2.30;;;;;;;;;;6019915;29;20122;-88
2023/10/08 17:04:20;;;;;;;2.45;2.35;;;;;;;;;;6016906;29;20046;-89
2023/10/08 17:07:22;;;;;;;2.15;2.15;;;;;;;;;;6016189;29;20041;-88
2023/10/08 17:10:29;;;;;;;3.40;3.20;;;;;;;;;;6019515;29;20076;-88
2023/10/08 17:13:31;;;;;;;2.60;2.50;;;;;;;;;;6021882;29;20053;-89
2023/10/08 17:16:33;;;;;;;3.15;3.05;;;;;;;;;;6019952;29;20042;-89
2023/10/08 17:19:35;;;;;;;2.30;2.20;;;;;;;;;;6016224;29;20049;-88
2023/10/08 17:22:37;;;;;;;2.42;2.33;;;;;;;;;;6022982;29;20069;-88
2023/10/08 17:25:42;;;;;;;2.47;2.47;;;;;;;;;;6011377;29;20054;-88
2023/10/08 17:28:44;;;;;;;2.35;2.35;;;;;;;;;;6011851;29;20045;-89
2023/10/08 17:31:48;;;;;;;2.70;2.60;;;;;;;;;;6021306;29;20049;-88
2023/10/08 17:34:52;;;;;;;2.63;2.55;;;;;;;;;;6021190;29;20053;-88
2023/10/08 17:37:54;;;;;;;2.50;2.47;;;;;;;;;;6023567;29;20142;-88
2023/10/08 17:40:56;;;;;;;2.20;2.10;;;;;;;;;;6025207;29;20393;-88
2023/10/08 17:43:59;;;;;;;1.70;1.70;;;;;;;;;;6021203;29;20523;-88
2023/10/08 17:47:02;;;;;;;2.15;2.15;;;;;;;;;;6024002;29;20306;-88
2023/10/08 17:50:04;;;;;;;2.45;2.45;;;;;;;;;;6019472;29;20124;-89
2023/10/08 17:53:10;;;;;;;2.58;2.58;;;;;;;;;;6023216;29;20038;-91
2023/10/08 17:56:15;;;;;;;2.20;2.20;;;;;;;;;;6022655;29;20045;-90
2023/10/08 17:59:20;;;;;;;2.40;2.30;;;;;;;;;;6020452;29;20674;-90
2023/10/08 18:02:22;;;;;;;2.92;2.83;;;;;;;;;;6020203;29;20335;-90
2023/10/08 18:05:27;;;;;;;2.78;2.67;;;;;;;;;;6023652;29;20842;-88
2023/10/08 18:08:29;;;;;;;2.33;2.33;;;;;;;;;;6023887;29;20921;-88
2023/10/08 18:11:43;;;;;;;2.70;2.60;;;;;;;;;;6015104;29;20041;-88
2023/10/08 18:14:45;;;;;;;2.85;2.75;;;;;;;;;;6016652;29;20061;-89
2023/10/08 18:17:54;;;;;;;1.90;1.90;;;;;;;;;;6015863;29;20046;-89
2023/10/08 18:20:58;;;;;;;2.08;2.08;;;;;;;;;;6009815;29;20068;-88
2023/10/08 18:24:00;;;;;;;2.58;2.55;;;;;;;;;;6010791;29;20057;-89
2023/10/08 18:27:02;;;;;;;2.72;2.70;;;;;;;;;;6021633;29;20049;-89
2023/10/08 18:30:05;;;;;;;3.75;3.55;;;;;;;;;;5993686;29;20045;-89
2023/10/08 18:33:08;;;;;;;3.17;3.08;;;;;;;;;;6016667;29;20049;-89
2023/10/08 18:36:11;;;;;;;2.58;2.47;;;;;;;;;;6023571;29;20050;-89
2023/10/08 18:39:14;;;;;;;2.03;2.03;;;;;;;;;;6020509;29;20052;-89
2023/10/08 18:42:18;;;;;;;3.78;3.30;;;;;;;;;;6004448;29;20436;-88
2023/10/08 18:45:20;;;;;;;2.00;2.00;;;;;;;;;;6014462;29;20552;-88
2023/10/08 18:48:22;;;;;;;2.42;2.42;;;;;;;;;;6022548;29;20124;-88
2023/10/08 18:51:24;;;;;;;2.05;2.05;;;;;;;;;;6016975;29;20530;-89
2023/10/08 18:54:26;;;;;;;1.90;1.90;;;;;;;;;;6022178;29;20049;-89
2023/10/08 18:57:28;;;;;;;2.33;2.33;;;;;;;;;;6021809;29;20373;-88
2023/10/08 19:00:32;;;;;;;4.72;3.20;;;;;;;;;;6017378;29;20077;-89
2023/10/08 19:03:35;;;;;;;2.10;2.10;;;;;;;;;;6015778;29;20064;-89
2023/10/08 19:06:37;;;;;;;2.13;2.13;;;;;;;;;;6015523;29;20178;-89
2023/10/08 19:09:39;;;;;;;3.50;3.30;;;;;;;;;;6016732;29;20082;-89
2023/10/08 19:12:42;;;;;;;2.03;2.03;;;;;;;;;;6022167;29;20050;-89
2023/10/08 19:15:45;;;;;;;2.00;2.00;;;;;;;;;;5977034;29;1280153;-89
2023/10/08 19:18:47;;;;;;;12.52;2.25;;;;;;;;;;6032659;29;20577;-89
2023/10/08 19:21:50;;;;;;;2.10;2.10;;;;;;;;;;6014352;29;20049;-89
2023/10/08 19:24:53;;;;;;;2.30;2.30;;;;;;;;;;6019230;29;20053;-89
2023/10/08 19:27:54;;;;;;;2.70;2.60;;;;;;;;;;6009330;29;20370;-88
2023/10/08 19:30:58;;;;;;;2.78;2.67;;;;;;;;;;6021871;29;20045;-88
2023/10/08 19:34:00;;;;;;;2.80;2.70;;;;;;;;;;6005452;29;20454;-88
2023/10/08 19:37:04;;;;;;;2.95;2.85;;;;;;;;;;6023625;29;20080;-88